createdAt,value
2022-09-26T00:02:46.493Z,5.60
2022-09-26T00:38:24.464Z,4.40
2022-09-26T00:40:53.172Z,7.40
2022-09-26T00:43:28.337Z,6.20
2022-09-26T00:45:56.782Z,9.00
2022-09-26T00:48:25.394Z,7.00
2022-09-26T00:50:53.998Z,7.00
2022-09-26T00:53:25.044Z,6.60
2022-09-26T00:55:55.094Z,6.60
2022-09-26T00:58:28.462Z,7.00
2022-09-26T01:00:56.795Z,6.20
2022-09-26T01:03:25.104Z,7.00
2022-09-26T01:05:53.321Z,9.00
2022-09-26T01:11:16.752Z,6.40
2022-09-26T01:13:45.486Z,3.20
2022-09-26T01:16:13.768Z,7.80
2022-09-26T01:18:42.016Z,6.00
2022-09-26T01:21:20.471Z,6.20
2022-09-26T01:24:11.871Z,5.20
2022-09-26T01:26:58.710Z,11.80
2022-09-26T01:29:56.403Z,12.00
2022-09-26T01:32:44.103Z,9.00
2022-09-26T01:35:14.782Z,7.00
2022-09-26T01:37:46.502Z,9.40
2022-09-26T01:40:18.106Z,13.40
2022-09-26T01:42:50.830Z,9.00
2022-09-26T01:45:20.003Z,11.20
2022-09-26T01:47:51.855Z,10.00
2022-09-26T01:50:23.036Z,11.20
2022-09-26T01:52:52.903Z,12.00
2022-09-26T01:55:23.239Z,11.40
2022-09-26T01:57:53.826Z,8.20
2022-09-26T02:00:22.080Z,9.80
2022-09-26T02:02:51.753Z,7.80
2022-09-26T02:05:23.751Z,8.20
2022-09-26T02:07:55.054Z,9.20
2022-09-26T02:10:26.238Z,8.20
2022-09-26T02:12:56.718Z,6.20
2022-09-26T02:15:25.820Z,9.00
2022-09-26T02:17:57.559Z,5.60
2022-09-26T02:20:28.209Z,8.20
2022-09-26T02:22:56.447Z,8.20
2022-09-26T02:25:24.715Z,9.00
2022-09-26T02:27:53.001Z,10.00
2022-09-26T02:30:21.206Z,9.60
2022-09-26T02:32:49.446Z,9.00
2022-09-26T02:35:33.302Z,11.40
2022-09-26T02:38:01.525Z,8.20
2022-09-26T02:40:34.262Z,6.60
2022-09-26T02:43:05.682Z,12.00
2022-09-26T02:45:36.653Z,9.00
2022-09-26T02:48:15.559Z,11.20
2022-09-26T02:50:54.965Z,9.80
2022-09-26T02:53:34.530Z,12.20
2022-09-26T02:56:05.277Z,11.60
2022-09-26T02:58:36.459Z,10.00
2022-09-26T03:01:10.853Z,12.00
2022-09-26T03:03:40.815Z,10.00
2022-09-26T03:06:12.498Z,10.40
2022-09-26T03:08:41.802Z,9.00
2022-09-26T03:11:11.003Z,12.40
2022-09-26T03:13:40.278Z,9.80
2022-09-26T03:16:08.628Z,15.00
2022-09-26T03:18:39.913Z,12.60
2022-09-26T03:21:25.738Z,7.20
2022-09-26T03:23:58.194Z,4.40
2022-09-26T03:26:27.296Z,10.80
2022-09-26T03:28:56.428Z,9.00
2022-09-26T03:31:25.506Z,4.00
2022-09-26T03:33:53.828Z,9.00
2022-09-26T03:36:23.113Z,8.60
2022-09-26T03:38:51.380Z,11.20
2022-09-26T03:41:20.952Z,6.00
2022-09-26T03:43:49.805Z,12.00
2022-09-26T03:46:18.333Z,13.00
2022-09-26T03:48:46.667Z,12.00
2022-09-26T03:51:34.253Z,6.60
2022-09-26T03:54:02.984Z,2.60
2022-09-26T03:56:32.578Z,9.40
2022-09-26T03:59:00.790Z,4.40
2022-09-26T04:01:29.350Z,12.80
2022-09-26T04:03:57.785Z,10.00
2022-09-26T04:06:26.074Z,9.40
2022-09-26T04:08:58.818Z,11.60
2022-09-26T04:11:32.110Z,9.80
2022-09-26T04:14:01.931Z,8.20
2022-09-26T04:16:31.335Z,10.20
2022-09-26T04:18:59.584Z,12.20
2022-09-26T04:21:28.788Z,7.00
2022-09-26T04:23:57.314Z,7.40
2022-09-26T04:26:25.828Z,11.60
2022-09-26T04:28:55.196Z,9.00
2022-09-26T04:31:26.407Z,10.00
2022-09-26T04:33:55.589Z,8.60
2022-09-26T04:36:23.922Z,8.40
2022-09-26T04:38:52.273Z,7.40
2022-09-26T04:41:21.278Z,5.80
2022-09-26T04:43:49.964Z,4.80
2022-09-26T04:46:22.262Z,6.60
2022-09-26T04:48:53.880Z,6.60
2022-09-26T04:51:23.068Z,12.00
2022-09-26T04:53:51.723Z,6.80
2022-09-26T04:56:20.894Z,6.60
2022-09-26T04:58:49.407Z,6.40
2022-09-26T05:01:18.435Z,6.20
2022-09-26T05:03:46.764Z,5.20
2022-09-26T05:06:17.740Z,10.00
2022-09-26T05:08:46.630Z,7.00
2022-09-26T05:11:15.102Z,12.20
2022-09-26T05:13:43.861Z,13.40
2022-09-26T05:16:14.675Z,6.40
2022-09-26T05:18:42.994Z,10.80
2022-09-26T05:21:13.161Z,12.80
2022-09-26T05:23:56.949Z,9.00
2022-09-26T05:26:27.783Z,10.00
2022-09-26T05:28:56.809Z,10.40
2022-09-26T05:31:26.432Z,12.60
2022-09-26T05:33:57.487Z,9.80
2022-09-26T05:36:26.127Z,10.00
2022-09-26T05:38:56.026Z,4.00
2022-09-26T05:41:23.596Z,10.00
2022-09-26T05:43:52.307Z,12.00
2022-09-26T05:46:41.463Z,10.40
2022-09-26T05:49:13.046Z,12.40
2022-09-26T05:51:41.524Z,9.80
2022-09-26T05:54:11.609Z,9.60
2022-09-26T05:56:43.353Z,9.60
2022-09-26T05:59:14.037Z,10.00
2022-09-26T06:01:42.899Z,11.20
2022-09-26T06:04:11.572Z,10.00
2022-09-26T06:06:39.973Z,10.00
2022-09-26T06:09:08.251Z,13.00
2022-09-26T06:11:37.899Z,12.40
2022-09-26T06:14:08.347Z,15.60
2022-09-26T06:16:36.632Z,11.40
2022-09-26T06:19:05.162Z,11.80
2022-09-26T06:21:34.192Z,10.80
2022-09-26T06:24:02.743Z,14.80
2022-09-26T06:26:48.360Z,10.80
2022-09-26T06:29:17.957Z,11.20
2022-09-26T06:31:46.578Z,14.40
2022-09-26T06:34:15.924Z,6.00
2022-09-26T06:36:44.333Z,8.60
2022-09-26T06:39:12.588Z,12.60
2022-09-26T06:41:40.937Z,16.80
2022-09-26T06:44:09.161Z,14.20
2022-09-26T06:46:38.801Z,10.00
2022-09-26T06:49:07.710Z,13.80
2022-09-26T06:51:38.207Z,9.00
2022-09-26T06:54:06.436Z,10.40
2022-09-26T06:56:34.677Z,8.20
2022-09-26T06:59:03.858Z,10.40
2022-09-26T07:01:32.750Z,10.40
2022-09-26T07:04:21.089Z,9.40
2022-09-26T07:06:49.620Z,10.80
2022-09-26T07:09:18.142Z,9.00
2022-09-26T07:12:13.466Z,7.20
2022-09-26T07:14:37.783Z,10.80
2022-09-26T07:17:06.251Z,25.20
2022-09-26T07:19:35.862Z,9.80
2022-09-26T07:22:04.723Z,10.00
2022-09-26T07:24:32.929Z,11.20
2022-09-26T07:27:01.430Z,9.00
2022-09-26T07:29:29.755Z,9.60
2022-09-26T07:31:58.449Z,7.40
2022-09-26T07:34:27.321Z,9.00
2022-09-26T07:37:02.500Z,7.80
2022-09-26T07:39:35.843Z,9.60
2022-09-26T07:42:04.613Z,8.60
2022-09-26T07:47:35.093Z,6.20
2022-09-26T07:50:14.935Z,6.00
2022-09-26T07:52:44.923Z,9.60
2022-09-26T07:55:14.008Z,6.80
2022-09-26T07:57:42.335Z,4.00
2022-09-26T08:00:13.005Z,7.00
2022-09-26T08:02:42.943Z,12.60
2022-09-26T08:05:11.911Z,5.20
2022-09-26T08:07:42.174Z,7.00
2022-09-26T08:10:19.275Z,9.00
2022-09-26T08:12:47.612Z,6.60
2022-09-26T08:15:15.926Z,7.00
2022-09-26T08:20:32.372Z,5.20
2022-09-26T08:23:01.026Z,5.20
2022-09-26T08:25:30.749Z,3.80
2022-09-26T08:27:59.736Z,5.20
2022-09-26T08:30:29.948Z,7.00
2022-09-26T08:32:59.225Z,4.00
2022-09-26T08:35:27.746Z,5.60
2022-09-26T08:37:56.169Z,7.00
2022-09-26T08:40:26.017Z,6.60
2022-09-26T08:42:59.679Z,6.00
2022-09-26T08:45:49.686Z,6.00
2022-09-26T08:48:28.024Z,5.20
2022-09-26T08:50:59.629Z,6.20
2022-09-26T08:53:29.556Z,5.20
2022-09-26T08:55:58.295Z,4.80
2022-09-26T08:58:40.084Z,4.00
2022-09-26T09:01:13.941Z,7.00
2022-09-26T09:03:45.632Z,3.00
2022-09-26T09:06:14.657Z,3.20
2022-09-26T09:08:44.662Z,6.60
2022-09-26T09:11:19.099Z,1.00
2022-09-26T09:13:57.402Z,4.40
2022-09-26T09:16:34.227Z,6.80
2022-09-26T09:19:07.005Z,6.00
2022-09-26T09:21:41.977Z,6.80
2022-09-26T09:24:18.474Z,3.00
2022-09-26T09:29:52.978Z,4.80
2022-09-26T09:32:23.192Z,7.00
2022-09-26T09:34:53.770Z,3.40
2022-09-26T09:37:25.167Z,3.00
2022-09-26T09:39:53.433Z,3.80
2022-09-26T09:42:25.489Z,1.00
2022-09-26T09:47:42.006Z,5.60
2022-09-26T09:50:14.046Z,3.00
2022-09-26T09:52:49.069Z,5.60
2022-09-26T09:55:26.797Z,3.60
2022-09-26T09:58:05.245Z,3.60
2022-09-26T10:00:35.184Z,3.60
2022-09-26T10:03:05.529Z,6.40
2022-09-26T10:05:37.786Z,5.60
2022-09-26T10:08:12.478Z,3.00
2022-09-26T10:10:46.734Z,3.00
2022-09-26T10:13:18.089Z,3.40
2022-09-26T10:18:55.687Z,3.80
2022-09-26T10:21:29.092Z,3.00
2022-09-26T10:23:59.034Z,3.00
2022-09-26T10:26:35.031Z,2.60
2022-09-26T10:29:06.952Z,3.00
2022-09-26T10:31:42.647Z,3.00
2022-09-26T10:34:23.486Z,3.60
2022-09-26T10:36:52.029Z,4.40
2022-09-26T10:39:35.485Z,4.00
2022-09-26T10:42:04.326Z,1.00
2022-09-26T10:44:34.271Z,3.00
2022-09-26T10:47:08.655Z,1.80
2022-09-26T10:49:40.072Z,4.00
2022-09-26T10:52:16.042Z,4.80
2022-09-26T10:54:48.669Z,3.00
2022-09-26T10:57:25.322Z,4.00
2022-09-26T11:00:07.094Z,4.00
2022-09-26T11:02:37.912Z,4.80
2022-09-26T11:05:20.804Z,5.40
2022-09-26T11:07:49.837Z,3.60
2022-09-26T11:10:19.497Z,5.20
2022-09-26T11:13:15.795Z,3.60
2022-09-26T11:15:53.589Z,4.00
2022-09-26T11:18:26.990Z,6.00
2022-09-26T11:20:56.471Z,7.80
2022-09-26T11:23:32.925Z,5.60
2022-09-26T11:29:02.233Z,5.20
2022-09-26T11:31:31.470Z,6.00
2022-09-26T11:34:01.194Z,6.00
2022-09-26T11:36:41.790Z,6.00
2022-09-26T11:39:18.642Z,6.60
2022-09-26T11:41:53.605Z,7.40
2022-09-26T11:44:31.778Z,6.00
2022-09-26T11:47:08.024Z,6.00
2022-09-26T11:49:48.774Z,4.00
2022-09-26T11:52:25.995Z,6.40
2022-09-26T11:55:00.829Z,4.00
2022-09-26T11:57:35.704Z,7.00
2022-09-26T12:00:07.540Z,3.40
2022-09-26T12:02:49.450Z,3.00
2022-09-26T12:05:27.297Z,4.00
2022-09-26T12:08:02.115Z,6.00
2022-09-26T12:10:34.564Z,5.60
2022-09-26T12:13:12.327Z,3.40
2022-09-26T12:15:43.631Z,6.60
2022-09-26T12:18:14.843Z,6.40
2022-09-26T12:20:48.946Z,6.60
2022-09-26T12:23:21.657Z,7.00
2022-09-26T12:25:56.239Z,8.60
2022-09-26T12:28:32.049Z,4.80
2022-09-26T12:31:08.014Z,4.00
2022-09-26T12:33:45.324Z,3.20
2022-09-26T12:36:22.057Z,5.60
2022-09-26T12:38:57.067Z,6.00
2022-09-26T12:41:36.386Z,4.00
2022-09-26T12:44:19.441Z,6.40
2022-09-26T12:46:58.900Z,8.60
2022-09-26T12:49:33.850Z,6.80
2022-09-26T12:52:07.362Z,5.20
2022-09-26T12:54:45.211Z,3.60
2022-09-26T12:57:19.302Z,6.00
2022-09-26T13:00:21.543Z,3.20
2022-09-26T13:03:18.175Z,3.20
2022-09-26T13:05:56.366Z,6.00
2022-09-26T13:08:26.885Z,4.00
2022-09-26T13:11:05.005Z,6.00
2022-09-26T13:13:53.734Z,6.40
2022-09-26T13:16:26.689Z,4.80
2022-09-26T13:18:57.845Z,6.00
2022-09-26T13:21:34.163Z,4.40
2022-09-26T13:24:08.579Z,4.00
2022-09-26T13:26:38.873Z,6.00
2022-09-26T13:29:28.624Z,3.20
2022-09-26T13:32:00.718Z,7.00
2022-09-26T13:34:31.356Z,4.00
2022-09-26T13:37:22.866Z,7.00
2022-09-26T13:39:53.898Z,6.00
2022-09-26T13:42:23.844Z,6.80
2022-09-26T13:44:57.765Z,3.00
2022-09-26T13:47:30.185Z,6.60
2022-09-26T13:50:01.556Z,6.00
2022-09-26T13:52:40.677Z,4.00
2022-09-26T13:55:20.896Z,4.00
2022-09-26T13:57:51.531Z,4.00
2022-09-26T14:00:41.092Z,6.60
2022-09-26T14:03:38.606Z,4.00
2022-09-26T14:06:24.190Z,1.00
2022-09-26T14:09:24.506Z,4.00
2022-09-26T14:12:20.164Z,3.00
2022-09-26T14:14:53.230Z,3.60
2022-09-26T14:17:51.175Z,3.60
2022-09-26T14:20:21.234Z,5.60
2022-09-26T14:23:17.296Z,5.20
2022-09-26T14:25:58.927Z,10.20
2022-09-26T14:28:53.964Z,9.80
2022-09-26T14:31:39.841Z,10.00
2022-09-26T14:34:15.763Z,5.40
2022-09-26T14:37:03.393Z,7.00
2022-09-26T14:39:34.791Z,6.60
2022-09-26T14:42:36.135Z,11.20
2022-09-26T14:45:07.211Z,7.40
2022-09-26T14:47:40.480Z,7.00
2022-09-26T14:50:15.779Z,5.20
2022-09-26T14:52:52.105Z,9.20
2022-09-26T14:55:21.018Z,6.00
2022-09-26T14:57:49.723Z,4.80
2022-09-26T15:00:36.401Z,6.00
2022-09-26T15:03:05.756Z,8.20
2022-09-26T15:05:34.146Z,6.60
2022-09-26T15:08:21.028Z,7.40
2022-09-26T15:10:49.439Z,5.80
2022-09-26T15:13:27.053Z,6.00
2022-09-26T15:16:00.957Z,10.20
2022-09-26T15:18:36.045Z,6.40
2022-09-26T15:21:07.485Z,6.60
2022-09-26T15:23:36.123Z,6.20
2022-09-26T15:26:04.510Z,4.00
2022-09-26T15:28:34.908Z,5.20
2022-09-26T15:31:21.672Z,9.00
2022-09-26T15:33:52.799Z,6.40
2022-09-26T15:36:21.063Z,6.60
2022-09-26T15:39:06.897Z,8.20
2022-09-26T15:41:49.756Z,9.00
2022-09-26T15:44:20.911Z,6.00
2022-09-26T15:46:53.589Z,7.40
2022-09-26T15:49:34.839Z,7.00
2022-09-26T15:52:03.574Z,8.60
2022-09-26T15:54:33.139Z,6.00
2022-09-26T15:57:02.602Z,12.40
2022-09-26T15:59:36.302Z,10.00
2022-09-26T16:02:17.628Z,4.00
2022-09-26T16:04:46.128Z,4.00
2022-09-26T16:07:19.839Z,3.00
2022-09-26T16:09:49.014Z,6.00
2022-09-26T16:12:19.775Z,11.00
2022-09-26T16:14:49.048Z,7.00
2022-09-26T16:17:23.041Z,6.00
2022-09-26T16:19:52.299Z,4.00
2022-09-26T16:22:40.315Z,3.40
2022-09-26T16:25:26.055Z,6.00
2022-09-26T16:28:00.031Z,3.20
2022-09-26T16:30:38.029Z,3.40
2022-09-26T16:33:25.929Z,11.40
2022-09-26T16:35:54.212Z,6.00
2022-09-26T16:38:25.210Z,5.60
2022-09-26T16:40:54.562Z,5.60
2022-09-26T16:43:29.553Z,3.40
2022-09-26T16:46:03.787Z,3.60
2022-09-26T16:48:38.726Z,4.00
2022-09-26T16:51:15.449Z,4.80
2022-09-26T16:53:45.661Z,6.40
2022-09-26T16:56:15.026Z,6.00
2022-09-26T16:58:48.009Z,5.60
2022-09-26T17:01:30.613Z,7.80
2022-09-26T17:04:00.314Z,6.40
2022-09-26T17:06:28.620Z,6.20
2022-09-26T17:08:57.867Z,6.00
2022-09-26T17:11:28.962Z,6.20
2022-09-26T17:14:00.384Z,6.00
2022-09-26T17:16:29.898Z,7.00
2022-09-26T17:18:59.535Z,6.00
2022-09-26T17:21:28.677Z,4.00
2022-09-26T17:23:57.001Z,6.00
2022-09-26T17:26:42.661Z,6.20
2022-09-26T17:29:16.747Z,3.00
2022-09-26T17:31:46.821Z,4.00
2022-09-26T17:34:17.221Z,5.60
2022-09-26T17:36:48.051Z,6.00
2022-09-26T17:39:18.491Z,6.20
2022-09-26T17:41:48.654Z,5.20
2022-09-26T17:44:20.453Z,12.80
2022-09-26T17:46:51.328Z,21.60
2022-09-26T17:49:25.791Z,21.00
2022-09-26T17:51:58.654Z,7.80
2022-09-26T17:54:30.881Z,12.60
2022-09-26T17:57:01.303Z,7.00
2022-09-26T17:59:30.081Z,12.80
2022-09-26T18:02:00.019Z,6.60
2022-09-26T18:04:30.994Z,9.60
2022-09-26T18:07:02.094Z,15.00
2022-09-26T18:09:32.520Z,10.40
2022-09-26T18:12:02.876Z,3.80
2022-09-26T18:14:32.309Z,9.40
2022-09-26T18:17:00.664Z,6.00
2022-09-26T18:19:31.806Z,6.60
2022-09-26T18:22:00.036Z,4.00
2022-09-26T18:24:29.465Z,6.00
2022-09-26T18:27:16.303Z,7.80
2022-09-26T18:29:47.483Z,5.60
2022-09-26T18:32:22.323Z,3.80
2022-09-26T18:34:52.022Z,6.80
2022-09-26T18:37:20.543Z,5.20
2022-09-26T18:39:54.403Z,4.00
2022-09-26T18:42:24.633Z,6.60
2022-09-26T18:44:56.913Z,4.00
2022-09-26T18:47:25.140Z,5.20
2022-09-26T18:49:54.999Z,4.80
2022-09-26T18:52:23.446Z,3.00
2022-09-26T18:55:12.001Z,4.00
2022-09-26T18:57:54.320Z,6.00
2022-09-26T19:00:22.576Z,4.00
2022-09-26T19:02:51.516Z,1.00
2022-09-26T19:05:23.278Z,3.00
2022-09-26T19:07:51.558Z,3.00
2022-09-26T19:10:27.260Z,1.00
2022-09-26T19:12:55.668Z,3.20
2022-09-26T19:15:23.999Z,3.20
2022-09-26T19:17:52.634Z,3.20
2022-09-26T19:20:22.308Z,3.60
2022-09-26T19:22:51.108Z,3.60
2022-09-26T19:25:19.742Z,3.00
2022-09-26T19:27:49.800Z,3.00
2022-09-26T19:30:20.146Z,1.00
2022-09-26T19:32:49.596Z,3.00
2022-09-26T19:35:23.095Z,2.60
2022-09-26T19:37:51.348Z,3.20
2022-09-26T19:40:20.874Z,2.20
2022-09-26T19:42:49.128Z,4.00
2022-09-26T19:45:17.971Z,3.80
2022-09-26T19:47:47.300Z,3.60
2022-09-26T19:50:37.161Z,3.00
2022-09-26T19:55:56.545Z,3.00
2022-09-26T19:58:26.137Z,1.00
2022-09-26T20:00:56.075Z,3.00
2022-09-26T20:03:26.861Z,1.00
2022-09-26T20:05:56.506Z,3.00
2022-09-26T20:08:25.677Z,4.00
2022-09-26T20:10:54.430Z,0.00
2022-09-26T20:13:22.726Z,3.20
2022-09-26T20:15:50.993Z,3.80
2022-09-26T20:18:20.828Z,3.00
2022-09-26T20:20:55.659Z,3.60
2022-09-26T20:23:26.544Z,3.40
2022-09-26T20:25:55.422Z,4.80
2022-09-26T20:28:23.661Z,2.60
2022-09-26T20:30:53.053Z,6.00
2022-09-26T20:33:22.456Z,3.40
2022-09-26T20:36:09.574Z,4.80
2022-09-26T20:38:40.609Z,6.00
2022-09-26T20:41:13.575Z,6.60
2022-09-26T20:43:42.026Z,9.00
2022-09-26T20:46:11.064Z,4.40
2022-09-26T20:48:39.397Z,7.00
2022-09-26T20:51:07.945Z,7.00
2022-09-26T20:53:36.724Z,7.00
2022-09-26T20:56:07.403Z,7.40
2022-09-26T20:58:35.760Z,6.00
2022-09-26T21:01:04.417Z,8.60
2022-09-26T21:03:32.811Z,7.00
2022-09-26T21:06:01.073Z,8.60
2022-09-26T21:08:30.564Z,3.40
2022-09-26T21:10:59.893Z,9.20
2022-09-26T21:13:29.617Z,7.40
2022-09-26T21:15:57.889Z,6.80
2022-09-26T21:18:26.785Z,7.20
2022-09-26T21:20:55.068Z,3.40
2022-09-26T21:23:24.341Z,6.80
2022-09-26T21:25:52.929Z,6.80
2022-09-26T21:28:40.920Z,6.60
2022-09-26T21:31:09.266Z,6.20
2022-09-26T21:33:37.698Z,8.80
2022-09-26T21:36:06.121Z,6.00
2022-09-26T21:38:34.861Z,6.00
2022-09-26T21:41:03.824Z,7.00
2022-09-26T21:43:33.573Z,6.00
2022-09-26T21:46:03.199Z,7.80
2022-09-26T21:48:31.802Z,6.20
2022-09-26T21:51:00.298Z,7.80
2022-09-26T21:53:31.122Z,6.00
2022-09-26T21:56:06.469Z,9.00
2022-09-26T21:58:37.625Z,10.40
2022-09-26T22:01:07.834Z,7.80
2022-09-26T22:03:54.167Z,9.40
2022-09-26T22:06:22.731Z,7.00
2022-09-26T22:08:51.618Z,9.60
2022-09-26T22:11:20.190Z,8.60
2022-09-26T22:13:48.905Z,9.00
2022-09-26T22:16:18.882Z,7.40
2022-09-26T22:18:48.511Z,9.60
2022-09-26T22:21:17.252Z,3.40
2022-09-26T22:23:45.730Z,7.00
2022-09-26T22:26:14.007Z,3.40
2022-09-26T22:28:42.509Z,7.80
2022-09-26T22:31:10.862Z,9.40
2022-09-26T22:33:40.578Z,9.80
2022-09-26T22:36:09.362Z,7.80
2022-09-26T22:38:37.753Z,8.80
2022-09-26T22:41:06.995Z,8.20
2022-09-26T22:43:35.658Z,7.80
2022-09-26T22:46:04.514Z,9.20
2022-09-26T22:48:34.137Z,7.80
2022-09-26T22:51:03.776Z,6.40
2022-09-26T22:53:32.422Z,6.40
2022-09-26T22:56:05.372Z,9.00
2022-09-26T22:58:36.782Z,6.20
2022-09-26T23:01:05.371Z,6.20
2022-09-26T23:03:34.306Z,6.20
2022-09-26T23:06:04.063Z,6.00
2022-09-26T23:08:33.263Z,5.20
2022-09-26T23:11:02.656Z,6.00
2022-09-26T23:13:31.637Z,4.50
2022-09-26T23:16:04.584Z,5.60
2022-09-26T23:18:34.715Z,3.00
2022-09-26T23:21:08.401Z,7.00
2022-09-26T23:23:36.697Z,4.00
2022-09-26T23:26:05.037Z,5.60
2022-09-26T23:28:33.573Z,3.00
2022-09-26T23:31:07.929Z,4.00
2022-09-26T23:33:36.232Z,2.60
2022-09-26T23:36:04.617Z,2.60
2022-09-26T23:38:35.045Z,3.00
2022-09-26T23:41:03.437Z,4.00
2022-09-26T23:43:31.761Z,4.00
2022-09-26T23:46:00.096Z,3.40
2022-09-26T23:48:28.736Z,3.00
2022-09-26T23:50:57.008Z,4.00
2022-09-26T23:53:25.353Z,7.40
2022-09-26T23:55:55.251Z,4.00
2022-09-26T23:58:23.500Z,3.40
